Time;durP1;ratioP1;P1;durP2;ratioP2;P2;SDS_P1;SDS_P2;PMS_P1;PMS_P2;Temp;Humidity;BMP_temperature;BMP_pressure;BME280_temperature;BME280_humidity;BME280_pressure;Samples;Min_cycle;Max_cycle;Signal;HPM_P1;HPM_P2
2021/06/22 00:02:14;;;;;;;15.20;6.93;;;;;;;15.16;69.59;99870.63;5045355;28;20032;-67
2021/06/22 00:04:39;;;;;;;15.57;6.90;;;;;;;15.17;69.49;99861.88;5027489;28;20159;-66
2021/06/22 00:07:05;;;;;;;17.65;7.22;;;;;;;15.18;69.51;99866.19;5045335;28;20517;-67
2021/06/22 00:09:30;;;;;;;14.10;6.57;;;;;;;15.14;69.63;99863.75;5045322;28;20031;-67
2021/06/22 00:11:55;;;;;;;14.75;6.70;;;;;;;15.11;69.67;99877.81;5045196;28;20068;-67
2021/06/22 00:14:21;;;;;;;16.83;6.88;;;;;;;15.05;69.94;99876.25;5045158;28;20049;-67
2021/06/22 00:16:46;;;;;;;14.90;6.55;;;;;;;15.00;69.99;99878.16;5045376;28;20022;-67
2021/06/22 00:19:13;;;;;;;12.27;6.60;;;;;;;15.02;70.11;99871.13;5045291;28;20026;-66
2021/06/22 00:21:38;;;;;;;13.68;6.70;;;;;;;15.01;70.22;99873.78;5045314;28;20025;-66
2021/06/22 00:24:04;;;;;;;18.13;7.30;;;;;;;15.04;70.18;99868.44;5045106;28;20053;-66
2021/06/22 00:26:30;;;;;;;21.77;8.25;;;;;;;15.07;70.03;99863.13;5045005;28;20025;-67
2021/06/22 00:28:55;;;;;;;14.25;6.75;;;;;;;15.04;70.07;99871.94;5043508;28;20018;-67
2021/06/22 00:31:20;;;;;;;17.60;6.75;;;;;;;15.05;70.13;99873.63;5045037;28;20029;-66
2021/06/22 00:33:46;;;;;;;13.68;7.15;;;;;;;14.96;70.02;99853.91;5044820;28;20029;-66
2021/06/22 00:36:11;;;;;;;12.48;7.32;;;;;;;14.96;70.22;99864.38;5045029;28;20060;-66
2021/06/22 00:38:37;;;;;;;14.80;7.55;;;;;;;14.94;70.34;99862.69;5044846;28;20025;-66
2021/06/22 00:41:03;;;;;;;14.25;7.60;;;;;;;14.94;70.28;99853.09;5044833;28;20495;-66
2021/06/22 00:43:28;;;;;;;18.40;7.88;;;;;;;14.90;70.36;99850.66;5044929;28;20032;-66
2021/06/22 00:45:54;;;;;;;13.18;6.18;;;;;;;14.92;70.33;99860.13;5044882;28;20041;-66
2021/06/22 00:48:19;;;;;;;13.88;7.07;;;;;;;14.91;70.32;99863.66;5045363;28;20031;-66
2021/06/22 00:50:44;;;;;;;12.60;6.97;;;;;;;14.91;70.52;99870.66;5044983;28;20036;-66
2021/06/22 00:53:10;;;;;;;11.27;6.40;;;;;;;14.89;70.24;99867.25;5044814;28;20097;-67
2021/06/22 00:55:35;;;;;;;17.20;6.65;;;;;;;14.89;70.20;99867.25;5043640;28;20030;-66
2021/06/22 00:58:05;;;;;;;15.00;6.45;;;;;;;14.89;70.33;99869.88;5044657;28;20063;-66
2021/06/22 01:00:32;;;;;;;17.10;7.25;;;;;;;14.86;70.32;99871.66;5044893;28;20021;-66
2021/06/22 01:02:58;;;;;;;12.20;6.03;;;;;;;14.91;70.65;99870.66;5026745;28;20031;-66
2021/06/22 01:05:25;;;;;;;14.45;5.95;;;;;;;14.91;70.10;99861.06;5044784;28;20032;-66
2021/06/22 01:07:53;;;;;;;12.07;6.07;;;;;;;14.92;70.06;99867.97;5044579;28;20029;-67
2021/06/22 01:10:19;;;;;;;19.05;6.15;;;;;;;14.89;70.07;99873.31;5043416;28;20022;-66
2021/06/22 01:12:44;;;;;;;12.93;6.10;;;;;;;14.86;70.29;99874.28;5044253;28;20025;-66
2021/06/22 01:15:12;;;;;;;12.15;5.53;;;;;;;14.87;70.31;99862.91;5043427;28;20704;-66
2021/06/22 01:17:37;;;;;;;12.52;6.15;;;;;;;14.86;70.17;99873.41;5044718;28;20104;-66
2021/06/22 01:20:03;;;;;;;16.90;6.05;;;;;;;14.79;70.49;99875.38;5026577;28;20127;-66
2021/06/22 01:22:29;;;;;;;12.75;5.95;;;;;;;14.79;70.46;99869.28;5044322;28;20088;-66
2021/06/22 01:24:57;;;;;;;13.30;6.30;;;;;;;14.82;70.48;99877.06;5044495;28;20021;-66
2021/06/22 01:27:22;;;;;;;11.85;5.95;;;;;;;14.80;70.47;99878.88;5044069;28;20085;-66
2021/06/22 01:29:49;;;;;;;12.48;5.65;;;;;;;14.77;70.63;99871.97;5044273;28;20251;-66
2021/06/22 01:32:14;;;;;;;9.60;5.13;;;;;;;14.69;70.58;99863.53;5044396;28;20108;-66
2021/06/22 01:34:40;;;;;;;11.60;5.85;;;;;;;14.66;70.67;99881.91;5044099;28;20026;-67
2021/06/22 01:37:08;;;;;;;14.07;6.10;;;;;;;14.60;70.70;99889.06;5044393;28;20358;-66
2021/06/22 01:39:33;;;;;;;11.40;5.60;;;;;;;14.53;70.83;99895.41;5043772;28;20036;-66
2021/06/22 01:41:59;;;;;;;17.77;5.63;;;;;;;14.50;70.78;99901.56;5044013;28;20018;-66
2021/06/22 01:44:28;;;;;;;10.57;5.20;;;;;;;14.46;70.75;99904.31;5044123;28;20021;-66
2021/06/22 01:46:54;;;;;;;14.88;5.72;;;;;;;14.48;70.91;99907.75;5044093;28;20029;-66
2021/06/22 01:49:19;;;;;;;14.40;5.00;;;;;;;14.48;70.72;99897.31;5043955;28;20032;-66
2021/06/22 01:51:45;;;;;;;14.13;5.13;;;;;;;14.49;70.65;99905.09;5042495;28;20048;-66
2021/06/22 01:54:10;;;;;;;10.02;5.35;;;;;;;14.52;70.76;99909.34;5043823;28;20028;-66
2021/06/22 01:56:36;;;;;;;13.40;5.22;;;;;;;14.56;70.45;99905.75;5043943;28;20040;-66
2021/06/22 01:59:03;;;;;;;12.43;4.78;;;;;;;14.57;70.62;99897.00;5043552;28;20056;-66
2021/06/22 02:01:30;;;;;;;8.32;4.68;;;;;;;14.63;70.41;99906.41;5043856;28;20029;-66
2021/06/22 02:03:55;;;;;;;8.27;4.18;;;;;;;14.69;70.24;99903.59;5025931;28;20018;-66
2021/06/22 02:06:21;;;;;;;8.93;4.20;;;;;;;14.74;70.27;99919.09;5043441;28;20029;-66
2021/06/22 02:08:46;;;;;;;11.52;5.28;;;;;;;14.76;70.13;99912.03;5043680;28;20089;-65
2021/06/22 02:11:12;;;;;;;11.25;4.50;;;;;;;14.80;70.03;99908.47;5043569;28;20084;-65
2021/06/22 02:13:37;;;;;;;7.20;4.25;;;;;;;14.82;69.99;99917.13;5043249;28;20026;-65
2021/06/22 02:16:03;;;;;;;10.20;4.60;;;;;;;14.83;70.05;99916.19;5041579;28;20025;-65
2021/06/22 02:18:28;;;;;;;10.63;4.47;;;;;;;14.85;70.12;99917.00;5043530;28;20032;-65
2021/06/22 02:20:53;;;;;;;14.70;5.30;;;;;;;14.87;69.90;99915.19;5042172;28;20029;-66
2021/06/22 02:23:19;;;;;;;13.00;5.07;;;;;;;14.91;69.86;99907.22;5025573;28;20036;-66
2021/06/22 02:25:45;;;;;;;9.68;4.68;;;;;;;14.96;69.93;99907.94;5043396;28;20025;-66
2021/06/22 02:28:15;;;;;;;13.07;5.00;;;;;;;14.93;69.66;99903.69;5043175;28;20068;-66
2021/06/22 02:30:41;;;;;;;11.52;5.68;;;;;;;14.95;69.70;99906.25;5043467;28;20072;-66
2021/06/22 02:33:07;;;;;;;16.10;5.43;;;;;;;14.92;69.98;99911.56;5043152;28;20053;-66
2021/06/22 02:35:33;;;;;;;7.95;4.93;;;;;;;14.92;70.12;99912.41;5043482;28;20026;-66
2021/06/22 02:37:59;;;;;;;12.88;6.00;;;;;;;14.94;70.21;99907.13;5043570;28;20056;-66
2021/06/22 02:40:25;;;;;;;12.35;4.60;;;;;;;14.94;70.19;99908.00;5043409;28;20053;-66
2021/06/22 02:42:51;;;;;;;15.10;5.25;;;;;;;14.96;70.31;99916.66;5043403;28;20014;-67
2021/06/22 02:45:17;;;;;;;9.13;5.32;;;;;;;14.97;70.29;99915.72;5043324;28;20032;-66
2021/06/22 02:47:45;;;;;;;10.75;4.85;;;;;;;15.01;70.24;99916.47;5043437;28;20032;-66
2021/06/22 02:50:11;;;;;;;12.38;4.70;;;;;;;15.01;70.13;99915.63;5043104;28;20021;-67
2021/06/22 02:52:36;;;;;;;12.27;5.40;;;;;;;15.07;70.34;99920.63;5043059;28;20140;-65
2021/06/22 02:55:05;;;;;;;12.50;5.10;;;;;;;15.11;70.18;99924.84;5042974;28;20112;-66
2021/06/22 02:57:30;;;;;;;11.57;4.70;;;;;;;15.10;70.31;99912.69;5043121;28;20021;-66
2021/06/22 02:59:55;;;;;;;13.70;5.90;;;;;;;15.16;70.07;99916.84;5042822;28;20091;-67
2021/06/22 03:02:21;;;;;;;7.88;4.60;;;;;;;15.17;70.13;99921.16;5043244;28;20025;-67
2021/06/22 03:04:46;;;;;;;14.27;5.63;;;;;;;15.20;69.90;99926.28;5043266;28;20053;-67
2021/06/22 03:07:11;;;;;;;11.88;5.03;;;;;;;15.20;70.02;99919.31;5042049;28;20029;-67
2021/06/22 03:09:37;;;;;;;11.43;5.10;;;;;;;15.17;69.91;99910.69;5043101;28;20030;-66
2021/06/22 03:12:03;;;;;;;13.02;4.97;;;;;;;15.13;69.77;99914.34;5043118;28;20025;-67
2021/06/22 03:14:29;;;;;;;10.95;4.82;;;;;;;15.10;69.95;99915.28;5043262;28;20275;-67
2021/06/22 03:16:54;;;;;;;9.90;5.15;;;;;;;15.10;69.96;99912.69;5043165;28;20064;-67
2021/06/22 03:19:20;;;;;;;18.15;5.70;;;;;;;15.13;69.91;99911.72;5042913;28;20025;-66
2021/06/22 03:21:47;;;;;;;17.45;5.13;;;;;;;15.09;69.81;99901.38;5043106;28;20041;-67
2021/06/22 03:24:18;;;;;;;9.63;4.93;;;;;;;15.19;69.76;99914.13;5041555;28;20022;-65
2021/06/22 03:26:44;;;;;;;10.45;5.03;;;;;;;15.20;70.01;99900.13;5044040;28;20029;-66
2021/06/22 03:29:10;;;;;;;10.20;4.82;;;;;;;15.30;69.77;99904.13;5046629;28;20036;-68
2021/06/22 03:31:36;;;;;;;12.73;4.97;;;;;;;15.37;69.61;99902.13;5046755;28;20032;-66
2021/06/22 03:34:02;;;;;;;9.48;4.65;;;;;;;15.38;69.54;99903.84;5046557;28;20036;-66
2021/06/22 03:36:28;;;;;;;8.55;4.20;;;;;;;15.44;69.54;99906.25;5046469;28;20021;-66
2021/06/22 03:38:53;;;;;;;13.82;4.78;;;;;;;15.52;69.10;99919.03;5028691;28;20024;-66
2021/06/22 03:41:19;;;;;;;13.98;4.45;;;;;;;15.61;69.02;99925.66;5046400;28;20028;-67
2021/06/22 03:43:45;;;;;;;16.88;5.10;;;;;;;15.68;69.03;99921.94;5028616;28;20032;-66
2021/06/22 03:46:10;;;;;;;9.95;4.75;;;;;;;15.84;68.46;99930.06;5046176;28;20044;-66
2021/06/22 03:48:36;;;;;;;9.43;3.90;;;;;;;15.90;68.29;99915.88;5044930;28;20047;-66
2021/06/22 03:51:03;;;;;;;13.32;5.45;;;;;;;16.00;67.97;99908.56;5046274;28;20025;-66
2021/06/22 03:53:28;;;;;;;12.20;5.05;;;;;;;16.09;68.06;99917.78;5045941;28;20465;-65
2021/06/22 03:55:54;;;;;;;14.60;4.60;;;;;;;16.15;68.10;99919.34;5028201;28;20051;-67
2021/06/22 03:58:19;;;;;;;16.85;4.68;;;;;;;16.19;67.77;99918.28;5045635;28;20049;-65
2021/06/22 04:00:45;;;;;;;11.95;4.50;;;;;;;16.22;67.61;99928.63;5046036;28;20040;-66
2021/06/22 04:03:14;;;;;;;6.82;3.60;;;;;;;16.28;67.49;99933.63;5046086;28;20048;-66
2021/06/22 04:05:40;;;;;;;14.23;4.70;;;;;;;16.35;67.47;99935.13;5045938;28;20021;-67
2021/06/22 04:08:06;;;;;;;10.05;4.35;;;;;;;16.47;67.29;99938.13;5046041;28;20035;-68
2021/06/22 04:10:31;;;;;;;10.07;4.28;;;;;;;16.58;66.80;99941.16;5045876;28;20064;-67
2021/06/22 04:12:57;;;;;;;10.55;4.13;;;;;;;16.67;66.51;99944.31;5045852;28;20029;-67
2021/06/22 04:15:23;;;;;;;11.73;4.95;;;;;;;16.74;66.23;99937.94;5045777;28;20029;-67
2021/06/22 04:17:48;;;;;;;10.15;4.38;;;;;;;16.80;66.02;99928.94;5045914;28;20327;-65
2021/06/22 04:20:14;;;;;;;13.77;4.50;;;;;;;16.88;66.41;99926.84;5044027;28;20087;-67
2021/06/22 04:22:39;;;;;;;8.90;4.22;;;;;;;17.05;65.97;99944.47;5045443;28;20120;-66
2021/06/22 04:25:06;;;;;;;10.95;4.60;;;;;;;17.34;66.14;99955.50;5027739;28;20071;-67
2021/06/22 04:27:32;;;;;;;11.02;4.13;;;;;;;17.80;66.05;99949.09;5045524;28;20025;-67
2021/06/22 04:29:57;;;;;;;11.75;3.90;;;;;;;18.55;65.23;99944.75;5044172;28;20032;-67
2021/06/22 04:32:22;;;;;;;7.18;3.70;;;;;;;19.60;63.88;99937.69;5044304;28;20445;-68
2021/06/22 04:34:48;;;;;;;9.75;3.03;;;;;;;20.73;59.61;99937.63;5045188;28;20568;-64
2021/06/22 04:37:13;;;;;;;9.60;4.18;;;;;;;21.79;55.34;99941.84;5045410;28;20032;-63
2021/06/22 04:39:39;;;;;;;10.48;3.33;;;;;;;22.72;53.49;99939.47;5044623;28;20085;-63
2021/06/22 04:42:05;;;;;;;7.95;2.83;;;;;;;23.76;51.80;99942.09;5045244;28;20072;-66
2021/06/22 04:44:30;;;;;;;11.23;3.35;;;;;;;24.61;49.78;99938.69;5045181;28;20026;-62
2021/06/22 04:46:55;;;;;;;9.88;3.70;;;;;;;25.18;47.03;99930.00;5045083;28;20025;-63
2021/06/22 04:49:21;;;;;;;8.38;3.92;;;;;;;25.84;45.61;99931.91;5045244;28;20243;-62
2021/06/22 04:51:46;;;;;;;11.15;3.97;;;;;;;26.28;44.18;99933.69;5045081;28;20059;-64
2021/06/22 04:54:12;;;;;;;8.05;3.97;;;;;;;26.92;41.79;99935.56;5045066;28;20021;-65
2021/06/22 04:56:38;;;;;;;11.00;3.83;;;;;;;27.41;40.67;99940.34;5045222;28;20028;-65
2021/06/22 04:59:04;;;;;;;6.82;3.20;;;;;;;27.92;39.34;99940.34;5027073;28;20045;-65
2021/06/22 05:01:30;;;;;;;10.15;3.53;;;;;;;28.04;37.25;99941.91;5045114;28;20343;-65
2021/06/22 05:03:55;;;;;;;8.23;3.38;;;;;;;28.19;37.39;99945.03;5045137;28;20087;-64
2021/06/22 05:06:22;;;;;;;9.07;3.05;;;;;;;28.43;37.17;99954.47;5027208;28;20037;-62
2021/06/22 05:08:47;;;;;;;10.40;3.58;;;;;;;28.71;36.79;99953.72;5027095;28;20044;-62
2021/06/22 05:11:13;;;;;;;7.75;3.40;;;;;;;28.75;35.66;99949.81;5044752;28;20025;-63
2021/06/22 05:13:38;;;;;;;8.70;3.03;;;;;;;28.89;35.85;99950.31;5044314;28;20018;-64
2021/06/22 05:16:04;;;;;;;10.52;3.38;;;;;;;28.93;35.07;99952.56;5044592;28;20026;-64
2021/06/22 05:18:29;;;;;;;9.40;2.72;;;;;;;28.94;34.74;99956.06;5044752;28;20048;-63
2021/06/22 05:20:55;;;;;;;6.47;2.75;;;;;;;28.94;34.80;99956.06;5044297;28;20104;-63
2021/06/22 05:23:21;;;;;;;9.10;2.80;;;;;;;28.87;34.54;99966.50;5044615;28;20025;-63
2021/06/22 05:25:46;;;;;;;10.75;2.63;;;;;;;28.54;34.24;99968.66;5044707;28;20032;-67
2021/06/22 05:28:12;;;;;;;8.82;2.90;;;;;;;27.43;35.25;99971.19;5044579;28;20017;-60
2021/06/22 05:30:38;;;;;;;8.02;2.80;;;;;;;26.48;36.78;99981.81;5044383;28;20045;-64
2021/06/22 05:33:04;;;;;;;8.30;3.15;;;;;;;25.94;37.53;99982.50;5044479;28;20032;-61
2021/06/22 05:35:30;;;;;;;11.30;3.03;;;;;;;25.33;38.34;99987.25;5044235;28;20025;-61
2021/06/22 05:37:56;;;;;;;7.90;2.70;;;;;;;24.68;39.43;99987.66;5044393;28;20022;-61
2021/06/22 05:40:21;;;;;;;10.23;3.10;;;;;;;24.16;40.55;99993.22;5044588;28;20132;-62
2021/06/22 05:42:47;;;;;;;8.60;3.05;;;;;;;24.01;41.17;99993.34;5044246;28;20113;-65
2021/06/22 05:45:12;;;;;;;8.48;3.05;;;;;;;23.73;42.07;99991.81;5043949;28;20056;-73
2021/06/22 05:47:38;;;;;;;9.15;2.90;;;;;;;23.51;42.52;99996.81;5044058;28;20029;-73
2021/06/22 05:50:04;;;;;;;13.38;3.92;;;;;;;23.36;42.94;100006.66;5042780;28;20039;-73
2021/06/22 05:52:30;;;;;;;8.50;3.05;;;;;;;23.09;43.94;100019.97;5026195;28;20045;-73
2021/06/22 05:54:55;;;;;;;11.55;3.92;;;;;;;22.72;44.96;100020.63;5026473;28;20274;-72
2021/06/22 05:57:21;;;;;;;11.30;3.58;;;;;;;22.23;45.76;100020.22;5044013;28;20021;-73
2021/06/22 05:59:46;;;;;;;10.30;3.90;;;;;;;21.70;47.02;100020.81;5038951;28;20092;-73
2021/06/22 06:02:11;;;;;;;9.73;4.18;;;;;;;21.24;48.40;100017.38;5024040;28;20022;-72
2021/06/22 06:04:37;;;;;;;14.00;4.40;;;;;;;20.79;49.78;100026.94;5022527;28;20453;-72
2021/06/22 06:07:02;;;;;;;11.82;3.95;;;;;;;20.29;51.19;100027.06;5023703;28;20021;-73
2021/06/22 06:09:28;;;;;;;13.48;4.18;;;;;;;20.00;51.81;100034.75;5023732;28;20048;-71
2021/06/22 06:11:54;;;;;;;14.32;4.57;;;;;;;19.81;52.15;100030.50;5022642;28;20033;-73
2021/06/22 06:14:19;;;;;;;14.60;4.72;;;;;;;19.48;53.04;100009.41;5023625;28;20373;-72
2021/06/22 06:16:45;;;;;;;10.23;3.72;;;;;;;19.41;53.53;100037.88;5023533;28;20018;-72
2021/06/22 06:19:10;;;;;;;8.80;4.15;;;;;;;19.16;54.61;100039.09;5023744;28;20030;-73
2021/06/22 06:21:39;;;;;;;13.32;3.80;;;;;;;18.98;54.78;100046.94;5023817;28;20030;-75
2021/06/22 06:24:06;;;;;;;11.38;4.40;;;;;;;18.85;55.46;100048.50;5024014;28;20106;-74
2021/06/22 06:26:41;;;;;;;18.23;4.20;;;;;;;18.74;55.92;100041.13;5023608;28;20029;-73
2021/06/22 06:29:15;;;;;;;15.80;5.03;;;;;;;18.68;56.22;100053.66;5023642;28;20329;-74
2021/06/22 06:31:40;;;;;;;7.95;4.05;;;;;;;18.55;56.53;100045.50;5023689;28;20025;-74
2021/06/22 06:34:06;;;;;;;11.80;4.45;;;;;;;18.50;56.77;100044.84;5023612;28;20527;-74
2021/06/22 06:36:31;;;;;;;11.95;4.30;;;;;;;18.57;56.70;100041.03;5022101;28;20022;-73
2021/06/22 06:38:56;;;;;;;9.30;4.07;;;;;;;18.64;56.31;100038.94;5023473;28;20033;-73
2021/06/22 06:41:22;;;;;;;10.20;4.78;;;;;;;18.71;56.56;100050.00;5023352;28;20026;-73
2021/06/22 06:43:47;;;;;;;12.88;4.70;;;;;;;18.72;56.59;100049.09;5021950;28;20022;-73
2021/06/22 06:46:13;;;;;;;10.98;4.35;;;;;;;18.80;56.22;100049.56;5023209;28;20137;-74
2021/06/22 06:48:40;;;;;;;14.98;5.10;;;;;;;18.83;55.87;100040.69;5022120;28;20026;-74
2021/06/22 06:51:06;;;;;;;10.48;4.28;;;;;;;18.93;55.94;100054.25;5021738;28;20022;-74
2021/06/22 06:53:31;;;;;;;14.25;3.92;;;;;;;19.06;55.33;100060.56;5023488;28;20018;-74
2021/06/22 06:55:57;;;;;;;11.57;3.92;;;;;;;19.06;55.66;100064.97;5038089;28;20074;-61
2021/06/22 06:58:22;;;;;;;9.35;4.80;;;;;;;19.20;55.29;100062.53;5029926;28;20046;-59
2021/06/22 07:00:47;;;;;;;9.20;3.20;;;;;;;19.29;54.96;100066.50;5043251;28;20037;-61
2021/06/22 07:03:13;;;;;;;8.88;3.63;;;;;;;19.40;55.15;100063.31;5046773;28;20049;-63
2021/06/22 07:05:38;;;;;;;10.02;3.70;;;;;;;19.65;54.56;100069.94;5047220;28;20026;-63
2021/06/22 07:08:05;;;;;;;11.25;3.35;;;;;;;19.77;53.87;100052.66;5047138;28;20448;-62
2021/06/22 07:10:32;;;;;;;8.38;4.20;;;;;;;19.98;53.07;100065.63;5046921;28;20021;-63
2021/06/22 07:12:59;;;;;;;13.50;3.88;;;;;;;20.16;53.08;100060.34;5046851;28;20064;-63
2021/06/22 07:15:25;;;;;;;7.38;3.85;;;;;;;20.54;52.56;100065.25;5045709;28;20076;-63
2021/06/22 07:17:51;;;;;;;7.40;3.42;;;;;;;20.89;52.33;100069.47;5046997;28;20477;-62
2021/06/22 07:20:17;;;;;;;7.78;3.38;;;;;;;21.15;50.94;100053.09;5028737;28;20049;-62
2021/06/22 07:22:42;;;;;;;8.45;3.35;;;;;;;21.61;50.42;100065.34;5046884;28;20044;-63
2021/06/22 07:25:08;;;;;;;7.75;3.10;;;;;;;22.00;48.93;100059.50;5046706;28;20053;-62
2021/06/22 07:27:34;;;;;;;9.55;4.07;;;;;;;22.34;48.29;100067.13;5046478;28;20037;-63
2021/06/22 07:30:00;;;;;;;7.32;3.10;;;;;;;22.83;47.55;100071.06;5046535;28;20535;-63
2021/06/22 07:32:25;;;;;;;9.73;3.15;;;;;;;23.20;46.81;100070.41;5046569;28;20018;-64
2021/06/22 07:34:50;;;;;;;6.22;2.70;;;;;;;23.74;46.56;100068.56;5046360;28;20432;-63
2021/06/22 07:37:16;;;;;;;13.35;3.33;;;;;;;24.21;45.38;100070.66;5046414;28;20056;-63
2021/06/22 07:39:41;;;;;;;8.32;3.15;;;;;;;24.60;44.62;100072.31;5046332;28;20025;-63
2021/06/22 07:42:07;;;;;;;11.13;3.25;;;;;;;25.18;43.56;100074.25;5046309;28;20020;-63
2021/06/22 07:44:32;;;;;;;4.55;2.50;;;;;;;25.87;41.68;100071.72;5046527;28;20036;-64
2021/06/22 07:46:57;;;;;;;7.25;3.22;;;;;;;26.08;40.27;100081.63;5028514;28;20061;-63
2021/06/22 07:49:23;;;;;;;10.35;2.70;;;;;;;26.24;39.86;100087.44;5046363;28;20017;-63
2021/06/22 07:51:48;;;;;;;14.65;3.47;;;;;;;25.90;39.81;100089.25;5046271;28;20160;-63
2021/06/22 07:54:14;;;;;;;10.23;3.63;;;;;;;25.59;40.44;100098.63;5046385;28;20030;-63
2021/06/22 07:56:40;;;;;;;8.15;3.30;;;;;;;25.19;40.20;100107.81;5046280;28;20061;-63
2021/06/22 07:59:05;;;;;;;7.38;3.10;;;;;;;24.57;40.90;100104.41;5045785;28;20064;-63
2021/06/22 08:01:31;;;;;;;8.18;3.40;;;;;;;24.33;41.43;100094.59;5046139;28;20116;-64
2021/06/22 08:03:56;;;;;;;8.15;3.45;;;;;;;24.57;41.64;100107.06;5046325;28;20033;-64
2021/06/22 08:06:22;;;;;;;7.70;3.08;;;;;;;25.09;41.68;100098.88;5046015;28;20025;-63
2021/06/22 08:08:47;;;;;;;10.45;3.35;;;;;;;25.80;40.28;100103.28;5046267;28;20358;-62
2021/06/22 08:11:12;;;;;;;10.27;3.80;;;;;;;25.74;39.38;100104.59;5046126;28;20087;-64
2021/06/22 08:13:38;;;;;;;7.85;3.40;;;;;;;25.20;40.58;100109.53;5044601;28;20377;-63
2021/06/22 08:16:04;;;;;;;10.07;3.97;;;;;;;24.63;41.36;100106.59;5045780;28;20040;-62
2021/06/22 08:18:30;;;;;;;10.93;3.95;;;;;;;23.92;42.48;100110.63;5045855;28;20018;-63
2021/06/22 08:20:56;;;;;;;8.73;3.72;;;;;;;23.44;43.52;100113.91;5045513;28;20112;-63
2021/06/22 08:23:21;;;;;;;8.80;3.42;;;;;;;23.13;44.37;100111.50;5027731;28;20021;-63
2021/06/22 08:25:47;;;;;;;10.80;4.20;;;;;;;22.96;44.64;100116.09;5043950;28;20029;-62
2021/06/22 08:28:13;;;;;;;8.30;3.55;;;;;;;22.78;45.02;100121.63;5045516;28;20017;-62
2021/06/22 08:30:39;;;;;;;10.27;4.30;;;;;;;22.93;45.56;100116.28;5045465;28;20045;-62
2021/06/22 08:33:06;;;;;;;7.22;3.38;;;;;;;23.94;44.45;100113.19;5045386;28;20160;-63
2021/06/22 08:35:33;;;;;;;8.30;3.45;;;;;;;25.28;42.21;100110.75;5045208;28;20055;-63
2021/06/22 08:37:59;;;;;;;9.25;3.63;;;;;;;26.05;39.06;100111.13;5045293;28;20029;-63
2021/06/22 08:40:25;;;;;;;7.05;3.55;;;;;;;26.04;38.60;100112.94;5045497;28;20021;-63
2021/06/22 08:42:51;;;;;;;9.38;3.47;;;;;;;25.72;39.01;100122.47;5045269;28;20024;-63
2021/06/22 08:45:18;;;;;;;7.10;3.03;;;;;;;25.56;39.45;100114.81;5045139;28;20025;-63
2021/06/22 08:47:44;;;;;;;7.65;3.30;;;;;;;25.28;39.58;100118.72;5045047;28;20082;-63
2021/06/22 08:50:10;;;;;;;6.68;3.22;;;;;;;25.10;40.12;100119.13;5045078;28;20112;-63
2021/06/22 08:52:36;;;;;;;8.40;3.38;;;;;;;24.98;40.31;100116.47;5045092;28;20029;-63
2021/06/22 08:55:04;;;;;;;8.73;3.40;;;;;;;25.44;39.81;100119.25;5044908;28;20028;-63
2021/06/22 08:57:30;;;;;;;11.10;3.15;;;;;;;26.29;37.93;100121.66;5044859;28;20139;-63
2021/06/22 08:59:56;;;;;;;6.53;3.00;;;;;;;26.84;37.20;100114.63;5044865;28;20474;-64
2021/06/22 09:02:25;;;;;;;6.72;3.30;;;;;;;27.72;35.78;100118.97;5027077;28;20013;-64
2021/06/22 09:04:53;;;;;;;9.95;3.17;;;;;;;28.47;34.54;100117.03;5044888;28;20276;-64
2021/06/22 09:07:49;;;;;;;6.70;2.97;;;;;;;28.17;33.62;100123.09;5026871;28;20091;-64
2021/06/22 09:10:30;;;;;;;8.15;3.30;;;;;;;27.49;34.80;100123.59;5044841;28;20025;-64
2021/06/22 09:12:58;;;;;;;7.90;2.80;;;;;;;26.96;35.55;100126.97;5044564;28;20048;-64
2021/06/22 09:15:29;;;;;;;9.45;3.10;;;;;;;27.44;35.80;100126.63;5044683;28;20017;-64
2021/06/22 09:17:56;;;;;;;10.43;3.22;;;;;;;28.51;34.42;100131.78;5044655;28;20055;-64
2021/06/22 09:20:39;;;;;;;6.53;2.97;;;;;;;29.43;33.03;100128.88;5044598;28;20021;-63
2021/06/22 09:23:15;;;;;;;7.28;3.15;;;;;;;30.04;31.39;100126.75;5044962;28;20041;-64
2021/06/22 09:25:42;;;;;;;9.65;2.72;;;;;;;30.40;30.52;100130.56;5044261;28;20029;-63
2021/06/22 09:28:07;;;;;;;5.88;2.92;;;;;;;29.99;30.26;100149.56;5044521;28;20048;-63
2021/06/22 09:30:50;;;;;;;11.77;3.92;;;;;;;28.88;31.97;100146.31;5044484;28;20028;-63
2021/06/22 09:33:19;;;;;;;8.65;3.00;;;;;;;27.76;33.11;100143.56;5026624;28;20034;-64
2021/06/22 09:35:49;;;;;;;9.75;3.80;;;;;;;27.10;34.74;100154.28;5044211;28;20037;-64
2021/06/22 09:38:15;;;;;;;7.43;3.35;;;;;;;26.72;35.35;100157.31;5043021;28;20082;-63
2021/06/22 09:40:41;;;;;;;9.38;3.30;;;;;;;26.46;35.94;100152.25;5043868;28;20471;-64
2021/06/22 09:43:07;;;;;;;8.35;3.67;;;;;;;26.14;36.42;100147.66;5026162;28;20025;-63
2021/06/22 09:45:33;;;;;;;8.88;3.00;;;;;;;25.84;37.05;100159.72;5044699;28;20017;-65
2021/06/22 09:48:00;;;;;;;10.93;3.65;;;;;;;25.45;37.78;100168.78;5044298;28;20031;-64
2021/06/22 09:50:38;;;;;;;8.40;3.42;;;;;;;25.14;38.68;100168.44;5044144;28;20029;-62
2021/06/22 09:53:28;;;;;;;11.35;4.13;;;;;;;24.97;39.47;100167.00;5044134;28;20353;-63
2021/06/22 09:55:54;;;;;;;8.95;3.80;;;;;;;24.81;39.64;100177.88;5044074;28;20049;-63
2021/06/22 09:58:40;;;;;;;10.93;3.70;;;;;;;24.67;40.04;100176.19;5043805;28;20179;-63
2021/06/22 10:01:23;;;;;;;18.88;4.80;;;;;;;24.38;40.54;100169.38;5044021;28;20075;-63
2021/06/22 10:03:49;;;;;;;10.30;3.83;;;;;;;24.33;40.88;100171.53;5044115;28;20017;-63
2021/06/22 10:06:15;;;;;;;10.70;4.07;;;;;;;24.25;40.93;100162.28;5043810;28;20056;-63
2021/06/22 10:08:51;;;;;;;8.18;3.63;;;;;;;23.98;41.78;100171.19;5042748;28;20023;-65
2021/06/22 10:11:41;;;;;;;9.05;3.85;;;;;;;23.71;42.14;100172.13;5043659;28;20044;-62
2021/06/22 10:14:22;;;;;;;8.25;3.60;;;;;;;23.42;42.94;100166.97;5025658;28;20028;-63
2021/06/22 10:16:48;;;;;;;11.40;3.78;;;;;;;23.33;43.44;100160.47;5043738;28;20026;-63
2021/06/22 10:19:14;;;;;;;13.20;4.30;;;;;;;23.46;43.25;100173.78;5043692;28;20036;-63
2021/06/22 10:21:40;;;;;;;13.15;3.80;;;;;;;23.40;43.22;100176.84;5043638;28;20026;-64
2021/06/22 10:24:05;;;;;;;14.45;4.15;;;;;;;23.40;43.28;100164.44;5026060;28;20028;-63
2021/06/22 10:26:32;;;;;;;11.60;4.53;;;;;;;23.45;43.69;100172.06;5042477;28;20052;-63
2021/06/22 10:29:00;;;;;;;9.60;4.18;;;;;;;23.61;42.99;100179.00;5043629;28;20108;-65
2021/06/22 10:31:26;;;;;;;10.85;3.92;;;;;;;23.63;42.91;100177.09;5042546;28;20025;-63
2021/06/22 10:33:51;;;;;;;7.88;3.20;;;;;;;23.95;42.61;100170.53;5043656;28;20036;-64
2021/06/22 10:36:24;;;;;;;9.05;4.07;;;;;;;24.13;42.08;100179.03;5042459;28;20036;-63
2021/06/22 10:38:55;;;;;;;11.68;4.20;;;;;;;24.21;42.04;100163.47;5043340;28;20033;-64
2021/06/22 10:41:22;;;;;;;7.25;3.53;;;;;;;24.28;42.23;100179.81;5025615;28;20057;-65
2021/06/22 10:43:48;;;;;;;9.52;3.55;;;;;;;24.37;41.26;100179.16;5043480;28;20080;-64
2021/06/22 10:46:16;;;;;;;9.38;3.28;;;;;;;24.40;41.09;100180.72;5025722;28;20049;-64
2021/06/22 10:48:53;;;;;;;10.45;3.35;;;;;;;24.51;40.53;100185.28;5043495;28;20021;-64
2021/06/22 10:51:30;;;;;;;8.75;3.40;;;;;;;24.59;41.13;100188.22;5043415;28;20075;-63
2021/06/22 10:53:56;;;;;;;9.07;3.58;;;;;;;24.59;40.79;100185.56;5043308;28;20525;-63
2021/06/22 10:56:24;;;;;;;7.40;3.28;;;;;;;24.85;41.09;100176.69;5025691;28;20457;-63
2021/06/22 10:59:11;;;;;;;10.90;3.80;;;;;;;24.99;39.76;100176.56;5042006;28;20034;-63
2021/06/22 11:01:52;;;;;;;9.98;3.80;;;;;;;24.65;40.28;100186.94;5043085;28;20033;-63
2021/06/22 11:04:18;;;;;;;7.30;3.45;;;;;;;24.38;40.94;100179.97;5043246;28;20032;-63
2021/06/22 11:07:02;;;;;;;6.85;3.33;;;;;;;24.18;41.26;100182.25;5043080;28;20017;-62
2021/06/22 11:09:27;;;;;;;11.40;3.63;;;;;;;24.16;41.47;100188.59;5043287;28;20045;-62
2021/06/22 11:12:23;;;;;;;10.05;3.83;;;;;;;23.97;41.63;100184.53;5041728;28;20409;-62
2021/06/22 11:15:07;;;;;;;8.35;3.85;;;;;;;23.69;41.99;100199.69;5034186;28;20037;-63
2021/06/22 11:17:42;;;;;;;11.65;4.10;;;;;;;23.36;42.40;100201.78;5025257;28;20022;-63
2021/06/22 11:20:09;;;;;;;10.15;4.25;;;;;;;23.18;43.13;100198.56;5043443;28;20041;-63
2021/06/22 11:23:07;;;;;;;10.70;3.83;;;;;;;23.13;43.30;100206.81;5043450;28;20022;-63
2021/06/22 11:25:46;;;;;;;12.00;4.05;;;;;;;23.05;43.11;100209.09;5025380;28;20041;-64